Time;durP1;ratioP1;P1;durP2;ratioP2;P2;SDS_P1;SDS_P2;PMS_P1;PMS_P2;Temp;Humidity;BMP_temperature;BMP_pressure;BME280_temperature;BME280_humidity;BME280_pressure;Samples;Min_cycle;Max_cycle;Signal;HPM_P1;HPM_P2
2022/11/23 00:01:49;;;;;;;10.40;5.80;;;;;;;-140.72;100.00;53149.81;5053474;28;20106;-62
2022/11/23 00:04:14;;;;;;;9.50;6.38;;;;;;;-140.72;100.00;53166.06;5055589;28;20028;-62
2022/11/23 00:06:40;;;;;;;13.40;5.90;;;;;;;-140.72;100.00;53218.81;5060760;28;20075;-62
2022/11/23 00:09:06;;;;;;;9.77;6.05;;;;;;;-140.72;100.00;53149.81;5063695;28;20052;-62
2022/11/23 00:11:34;;;;;;;15.45;7.07;;;;;;;-140.72;100.00;53170.13;5063144;28;20035;-66
2022/11/23 00:14:00;;;;;;;13.50;7.35;;;;;;;-140.72;100.00;53157.94;5055865;28;20078;-62
2022/11/23 00:16:28;;;;;;;9.60;6.10;;;;;;;-140.72;100.00;53137.66;5053349;28;20491;-61
2022/11/23 00:18:55;;;;;;;11.35;7.05;;;;;;;-140.72;100.00;53178.22;5060973;28;20021;-64
2022/11/23 00:21:22;;;;;;;10.70;6.10;;;;;;;-140.72;100.00;53147.78;5060671;28;20121;-65
2022/11/23 00:23:48;;;;;;;11.32;6.40;;;;;;;-140.72;100.00;53190.41;5058318;28;20028;-68
2022/11/23 00:26:14;;;;;;;11.15;7.65;;;;;;;-140.72;100.00;53143.72;5055862;28;20036;-63
2022/11/23 00:28:41;;;;;;;11.73;7.68;;;;;;;-140.72;100.00;53159.97;5068915;28;20111;-61
2022/11/23 00:31:07;;;;;;;10.48;6.25;;;;;;;-140.72;100.00;53170.13;5067620;28;20028;-62
2022/11/23 00:33:34;;;;;;;12.23;7.65;;;;;;;-140.72;100.00;53129.53;5049320;28;20048;-62
2022/11/23 00:36:02;;;;;;;13.32;7.47;;;;;;;-140.72;100.00;53129.53;5049354;28;20449;-62
2022/11/23 00:38:28;;;;;;;13.15;7.60;;;;;;;-140.72;100.00;53170.13;5062978;28;20120;-66
2022/11/23 00:41:02;;;;;;;11.05;8.02;;;;;;;-140.72;100.00;53180.25;5059732;28;20182;-66
2022/11/23 00:43:28;;;;;;;13.15;8.23;;;;;;;-140.72;100.00;53184.31;5056773;28;20043;-62
2022/11/23 00:46:09;;;;;;;13.68;7.65;;;;;;;-140.72;100.00;53186.34;5069573;28;20029;-62
2022/11/23 00:48:34;;;;;;;13.75;5.90;;;;;;;-140.72;100.00;53164.03;5065211;28;20036;-64
2022/11/23 00:51:04;;;;;;;10.50;7.07;;;;;;;-140.72;100.00;53188.38;5065460;28;20458;-62
2022/11/23 00:53:30;;;;;;;13.05;7.18;;;;;;;-140.72;100.00;53137.66;5051286;28;20039;-64
2022/11/23 00:55:56;;;;;;;10.40;6.60;;;;;;;-140.72;100.00;53159.97;5056228;28;20029;-62
2022/11/23 00:58:22;;;;;;;12.43;6.72;;;;;;;-140.72;100.00;53164.03;5063171;28;20032;-62
2022/11/23 01:00:48;;;;;;;11.75;6.60;;;;;;;-140.72;100.00;53133.59;5062591;28;20499;-62
2022/11/23 01:03:14;;;;;;;9.98;6.78;;;;;;;-140.72;100.00;53194.47;5051371;28;20108;-63
2022/11/23 01:05:39;;;;;;;10.40;7.25;;;;;;;-140.72;100.00;53178.22;5062401;28;20029;-61
2022/11/23 01:08:05;;;;;;;15.27;7.15;;;;;;;-140.72;100.00;53157.94;5058831;28;20429;-62
2022/11/23 01:10:31;;;;;;;13.27;7.15;;;;;;;-140.72;100.00;53162.00;5061381;28;20029;-66
2022/11/23 01:12:57;;;;;;;8.93;6.80;;;;;;;-140.72;100.00;53155.91;5061444;28;20527;-67
2022/11/23 01:15:22;;;;;;;12.05;6.80;;;;;;;-140.72;100.00;53174.19;5062436;28;20040;-62
2022/11/23 01:17:48;;;;;;;12.32;7.13;;;;;;;-140.72;100.00;53176.22;5063125;28;20028;-65
2022/11/23 01:20:13;;;;;;;10.48;6.63;;;;;;;-140.72;100.00;53133.59;5070029;28;20032;-63
2022/11/23 01:22:39;;;;;;;9.55;6.38;;;;;;;-140.72;100.00;53109.22;5052111;28;20471;-63
2022/11/23 01:25:05;;;;;;;8.23;5.93;;;;;;;-140.72;100.00;53166.06;5066102;28;20389;-67
2022/11/23 01:27:30;;;;;;;11.48;6.22;;;;;;;-140.72;100.00;53137.66;5056051;28;20112;-67
2022/11/23 01:29:55;;;;;;;10.02;5.85;;;;;;;-140.72;100.00;53162.00;5068319;28;20108;-62
2022/11/23 01:32:21;;;;;;;8.75;6.35;;;;;;;-140.72;100.00;53172.16;5063647;28;20020;-67
2022/11/23 01:34:46;;;;;;;11.85;5.47;;;;;;;-140.72;100.00;53202.59;5063764;28;20052;-61
2022/11/23 01:37:11;;;;;;;13.43;5.53;;;;;;;-140.72;100.00;53178.22;5050403;28;20025;-62
2022/11/23 01:39:37;;;;;;;9.52;5.22;;;;;;;-140.72;100.00;53166.06;5060616;28;20094;-61
2022/11/23 01:42:05;;;;;;;10.57;5.38;;;;;;;-140.72;100.00;53133.59;5063329;28;20016;-63
2022/11/23 01:44:37;;;;;;;8.27;5.05;;;;;;;-140.72;100.00;53178.22;5068565;28;20039;-62
2022/11/23 01:47:05;;;;;;;9.23;5.93;;;;;;;-140.72;100.00;53194.47;5052249;28;20032;-61
2022/11/23 01:49:36;;;;;;;11.35;5.15;;;;;;;-140.72;100.00;53149.81;5051940;28;20036;-62
2022/11/23 01:52:08;;;;;;;12.65;3.58;;;;;;;-140.72;100.00;53206.66;5056442;28;20025;-62
2022/11/23 01:54:38;;;;;;;9.60;4.85;;;;;;;-140.72;100.00;53190.41;5055978;28;20052;-61
2022/11/23 01:57:18;;;;;;;8.15;4.80;;;;;;;-140.72;100.00;53204.63;5052096;28;20108;-62
2022/11/23 01:59:45;;;;;;;6.07;4.20;;;;;;;-140.72;100.00;53190.41;5053952;28;20032;-62
2022/11/23 02:02:11;;;;;;;9.45;4.55;;;;;;;-140.72;100.00;53166.06;5049741;28;20372;-66
2022/11/23 02:04:41;;;;;;;11.20;4.63;;;;;;;-140.72;100.00;53176.22;5064982;28;20378;-62
2022/11/23 02:07:07;;;;;;;8.40;4.20;;;;;;;-140.72;100.00;53198.53;5053387;28;20032;-64
2022/11/23 02:09:34;;;;;;;6.72;4.47;;;;;;;-140.72;100.00;53153.88;5063847;28;20099;-62
2022/11/23 02:12:00;;;;;;;13.30;4.22;;;;;;;-140.72;100.00;53164.03;5063420;28;20525;-64
2022/11/23 02:14:26;;;;;;;7.90;4.60;;;;;;;-140.72;100.00;53143.72;5058653;28;20024;-61
2022/11/23 02:16:52;;;;;;;8.88;4.80;;;;;;;-140.72;100.00;53194.47;5062726;28;20037;-62
2022/11/23 02:19:43;;;;;;;9.63;4.38;;;;;;;-140.72;100.00;53168.09;5058676;28;20470;-61
2022/11/23 02:22:26;;;;;;;5.88;4.18;;;;;;;-140.72;100.00;53237.09;5058689;28;20040;-62
2022/11/23 02:24:54;;;;;;;5.70;4.15;;;;;;;-140.72;100.00;53186.34;5061419;28;20028;-62
2022/11/23 02:27:20;;;;;;;8.68;3.75;;;;;;;-140.72;100.00;53174.19;5058632;28;20060;-64
2022/11/23 02:29:46;;;;;;;5.90;3.75;;;;;;;-140.72;100.00;53149.81;5068454;28;20025;-66
2022/11/23 02:32:19;;;;;;;5.03;3.67;;;;;;;-140.72;100.00;53192.44;5066409;28;20040;-62
2022/11/23 02:34:45;;;;;;;6.68;4.25;;;;;;;-140.72;100.00;53137.66;5057193;28;20028;-62
2022/11/23 02:37:10;;;;;;;7.22;5.53;;;;;;;-140.72;100.00;53194.47;5071288;28;20029;-64
2022/11/23 02:39:40;;;;;;;12.75;4.30;;;;;;;-140.72;100.00;53192.44;5059835;28;20051;-62
2022/11/23 02:42:06;;;;;;;8.27;5.40;;;;;;;-140.72;100.00;53184.31;5059406;28;20025;-66
2022/11/23 02:44:40;;;;;;;9.45;5.85;;;;;;;-140.72;100.00;53162.00;5058183;28;20060;-62
2022/11/23 02:47:06;;;;;;;6.60;4.63;;;;;;;-140.72;100.00;53168.09;5072431;28;20028;-63
2022/11/23 02:49:32;;;;;;;12.70;5.82;;;;;;;-140.72;100.00;53210.72;5071049;28;20063;-62
2022/11/23 02:51:57;;;;;;;8.20;5.70;;;;;;;-140.72;100.00;53198.53;5071812;28;20056;-65
2022/11/23 02:54:23;;;;;;;10.05;5.63;;;;;;;-140.72;100.00;53178.22;5058092;28;20024;-61
2022/11/23 02:56:48;;;;;;;14.93;6.55;;;;;;;-140.72;100.00;53170.13;5060416;28;20028;-62
2022/11/23 02:59:14;;;;;;;10.25;5.60;;;;;;;-140.72;100.00;53155.91;5054046;28;20052;-64
2022/11/23 03:01:39;;;;;;;10.07;6.07;;;;;;;-140.72;100.00;53176.22;5053805;28;20020;-62
2022/11/23 03:04:05;;;;;;;8.05;6.15;;;;;;;-140.72;100.00;53206.66;5062209;28;20467;-63
2022/11/23 03:06:31;;;;;;;10.77;7.60;;;;;;;-140.72;100.00;53178.22;5066960;28;20031;-62
2022/11/23 03:08:56;;;;;;;9.50;5.78;;;;;;;-140.72;100.00;53168.09;5061939;28;20021;-62
2022/11/23 03:11:22;;;;;;;10.45;6.35;;;;;;;-140.72;100.00;53182.28;5066787;28;20447;-64
2022/11/23 03:13:47;;;;;;;8.45;7.03;;;;;;;-140.72;100.00;53145.75;5061478;28;20021;-65
2022/11/23 03:16:13;;;;;;;9.93;6.13;;;;;;;-140.72;100.00;53186.34;5060570;28;20148;-62
2022/11/23 03:18:38;;;;;;;7.53;5.50;;;;;;;-140.72;100.00;53200.56;5067991;28;20024;-65
2022/11/23 03:21:07;;;;;;;8.10;5.90;;;;;;;-140.72;100.00;53178.22;5066875;28;20024;-64
2022/11/23 03:23:33;;;;;;;8.30;6.05;;;;;;;-140.72;100.00;53214.78;5066356;28;20024;-62
2022/11/23 03:25:58;;;;;;;7.90;5.50;;;;;;;-140.72;100.00;53180.25;5061672;28;20463;-62
2022/11/23 03:28:24;;;;;;;8.80;6.22;;;;;;;-140.72;100.00;53180.25;5058989;28;20024;-64
2022/11/23 03:30:50;;;;;;;7.30;5.72;;;;;;;-140.72;100.00;53137.66;5053523;28;20021;-62
2022/11/23 03:33:16;;;;;;;9.35;6.18;;;;;;;-140.72;100.00;53157.94;5052520;28;20399;-62
2022/11/23 03:35:42;;;;;;;7.68;5.35;;;;;;;-140.72;100.00;53202.59;5058601;28;20032;-66
2022/11/23 03:38:10;;;;;;;8.32;5.30;;;;;;;-140.72;100.00;53172.16;5052250;28;20498;-61
2022/11/23 03:40:37;;;;;;;8.68;5.78;;;;;;;-140.72;100.00;53200.56;5065114;28;20025;-62
2022/11/23 03:43:03;;;;;;;9.15;5.05;;;;;;;-140.72;100.00;53176.22;5051021;28;20294;-62
2022/11/23 03:45:28;;;;;;;6.03;5.22;;;;;;;-140.72;100.00;53194.47;5059344;28;20056;-63
2022/11/23 03:47:54;;;;;;;7.22;5.63;;;;;;;-140.72;100.00;53149.81;5068747;28;20107;-63
2022/11/23 03:50:19;;;;;;;7.75;4.70;;;;;;;-140.72;100.00;53196.50;5059135;28;20115;-67
2022/11/23 03:52:47;;;;;;;6.28;4.50;;;;;;;-140.72;100.00;53159.97;5051896;28;20108;-66
2022/11/23 03:55:13;;;;;;;5.88;4.28;;;;;;;-140.72;100.00;53166.06;4943922;28;20024;-62
2022/11/23 03:57:38;;;;;;;9.60;4.22;;;;;;;-140.72;100.00;53194.47;5037391;28;20017;-62
2022/11/23 04:00:04;;;;;;;6.22;3.85;;;;;;;-140.72;100.00;53170.13;4989066;28;20524;-62
2022/11/23 04:02:30;;;;;;;9.27;3.92;;;;;;;-140.72;100.00;53192.44;5028373;28;20782;-62
2022/11/23 04:04:58;;;;;;;7.00;3.95;;;;;;;-140.72;100.00;53202.59;5029352;28;20104;-64
2022/11/23 04:07:23;;;;;;;7.28;3.40;;;;;;;-140.72;100.00;53135.63;5031988;28;20027;-65
2022/11/23 04:10:38;;;;;;;5.50;3.42;;;;;;;-140.72;100.00;53153.88;4962601;28;20425;-63
2022/11/23 04:26:32;;;;;;;8.32;4.80;;;;;;;-140.72;100.00;53166.06;4775902;28;20526;-64
2022/11/23 05:45:48;;;;;;;8.88;3.88;;;;;;;-140.72;100.00;53164.03;4858742;28;20078;-63
2022/11/23 06:11:23;;;;;;;8.45;2.90;;;;;;;-140.72;100.00;53190.41;4841888;28;20538;-63
2022/11/23 06:13:49;;;;;;;3.00;1.70;;;;;;;-140.72;100.00;53192.44;4847405;28;20831;-62
2022/11/23 06:16:15;;;;;;;3.90;1.15;;;;;;;-140.72;100.00;53170.13;5078837;28;20064;-62
2022/11/23 06:18:40;;;;;;;3.30;1.17;;;;;;;-140.72;100.00;53198.53;5081652;28;20417;-63
2022/11/23 06:21:05;;;;;;;8.13;2.03;;;;;;;-140.72;100.00;53206.66;5079933;28;20032;-62
2022/11/23 06:23:31;;;;;;;3.22;1.48;;;;;;;-140.72;100.00;53166.06;5084034;28;20435;-64
2022/11/23 06:26:00;;;;;;;3.00;1.20;;;;;;;-140.72;100.00;53218.81;5075475;28;20029;-62
2022/11/23 06:28:26;;;;;;;8.52;1.60;;;;;;;-140.72;100.00;53216.78;5086939;28;20477;-63
2022/11/23 06:30:51;;;;;;;4.90;1.48;;;;;;;-140.72;100.00;53206.66;5093047;28;20028;-69
2022/11/23 06:33:17;;;;;;;8.13;2.10;;;;;;;-140.72;100.00;53226.94;5073674;28;20028;-62
2022/11/23 06:35:51;;;;;;;3.03;1.40;;;;;;;-140.72;100.00;53247.25;5077645;28;20474;-62
2022/11/23 06:38:16;;;;;;;8.93;1.67;;;;;;;-140.72;100.00;53202.59;5082244;28;20029;-68
2022/11/23 06:40:41;;;;;;;8.63;1.77;;;;;;;-140.72;100.00;53182.28;5072431;28;20110;-62
2022/11/23 06:43:07;;;;;;;2.85;1.35;;;;;;;-140.72;100.00;53202.59;5082517;28;20475;-62
2022/11/23 06:45:33;;;;;;;5.45;1.23;;;;;;;-140.72;100.00;53141.69;5071360;28;20024;-63
2022/11/23 06:47:58;;;;;;;4.07;1.48;;;;;;;-140.72;100.00;53222.88;5079429;28;20108;-63
2022/11/23 06:50:23;;;;;;;9.70;2.42;;;;;;;-140.72;100.00;53182.28;5083102;28;20024;-63
2022/11/23 06:52:54;;;;;;;3.05;1.30;;;;;;;-140.72;100.00;53194.47;5084980;28;20458;-62
2022/11/23 06:55:20;;;;;;;9.68;1.73;;;;;;;-140.72;100.00;53206.66;5076378;28;20504;-66
2022/11/23 06:57:45;;;;;;;4.47;1.67;;;;;;;-140.72;100.00;53194.47;5087722;28;20031;-63
2022/11/23 07:00:11;;;;;;;7.05;2.33;;;;;;;-140.72;100.00;53176.22;5094310;28;20431;-64
2022/11/23 07:02:36;;;;;;;4.93;0.98;;;;;;;-140.72;100.00;53180.25;5086793;28;20472;-63
2022/11/23 07:05:02;;;;;;;5.53;1.65;;;;;;;-140.72;100.00;53198.53;5078186;28;20028;-63
2022/11/23 07:07:27;;;;;;;4.07;1.45;;;;;;;-140.72;100.00;53147.78;5082396;28;20073;-66
2022/11/23 07:09:53;;;;;;;5.63;1.00;;;;;;;-140.72;100.00;53218.81;5085485;28;20474;-63
2022/11/23 07:12:18;;;;;;;3.97;1.05;;;;;;;-140.72;100.00;53208.69;5074519;28;20110;-64
2022/11/23 07:14:43;;;;;;;7.45;1.33;;;;;;;-140.72;100.00;53178.22;5077657;28;20097;-66
2022/11/23 07:17:09;;;;;;;2.53;0.82;;;;;;;-140.72;100.00;53231.00;5084160;28;20401;-64
2022/11/23 07:19:34;;;;;;;9.52;1.63;;;;;;;-140.72;100.00;53196.50;5082661;28;20524;-63
2022/11/23 07:21:59;;;;;;;3.95;1.08;;;;;;;-140.72;100.00;53178.22;5074259;28;20024;-63
2022/11/23 07:24:25;;;;;;;13.73;2.47;;;;;;;-140.72;100.00;53190.41;5083724;28;20036;-68
2022/11/23 07:26:50;;;;;;;4.97;1.88;;;;;;;-140.72;100.00;53174.19;5076787;28;20095;-63
2022/11/23 07:29:15;;;;;;;8.00;1.13;;;;;;;-140.72;100.00;53151.84;5079381;28;20052;-62
2022/11/23 07:31:41;;;;;;;7.65;1.60;;;;;;;-140.72;100.00;53178.22;5080107;28;20027;-62
2022/11/23 07:34:08;;;;;;;3.08;1.27;;;;;;;-140.72;100.00;53162.00;5082846;28;20056;-64
2022/11/23 07:36:33;;;;;;;8.63;1.30;;;;;;;-140.72;100.00;53180.25;5089513;28;20024;-63
2022/11/23 07:38:59;;;;;;;11.20;1.90;;;;;;;-140.72;100.00;53182.28;5089782;28;20038;-64
2022/11/23 07:41:26;;;;;;;14.82;1.73;;;;;;;-140.72;100.00;53210.72;5083613;28;20024;-62
2022/11/23 07:43:51;;;;;;;2.90;0.95;;;;;;;-140.72;100.00;53149.81;5088319;28;20031;-62
2022/11/23 07:46:17;;;;;;;3.63;1.08;;;;;;;-140.72;100.00;53186.34;5077108;28;20099;-67
2022/11/23 07:48:42;;;;;;;5.30;1.50;;;;;;;-140.72;100.00;53170.13;5085073;28;20017;-63
2022/11/23 07:51:07;;;;;;;6.72;1.27;;;;;;;-140.72;100.00;53157.94;5074415;28;20028;-69
2022/11/23 07:53:34;;;;;;;4.32;1.42;;;;;;;-140.72;100.00;53178.22;5088412;28;20020;-62
2022/11/23 07:56:00;;;;;;;6.47;1.48;;;;;;;-140.72;100.00;53174.19;5083343;28;20412;-62
2022/11/23 07:58:25;;;;;;;8.55;1.80;;;;;;;-140.72;100.00;53188.38;5082184;28;20117;-63
2022/11/23 08:00:51;;;;;;;3.58;1.50;;;;;;;-140.72;100.00;53190.41;5081077;28;20029;-66
2022/11/23 08:03:16;;;;;;;7.00;2.05;;;;;;;-140.72;100.00;53222.88;5080302;28;20055;-66
2022/11/23 08:05:42;;;;;;;4.00;1.02;;;;;;;-140.72;100.00;53176.22;5078402;28;20024;-66
2022/11/23 08:08:07;;;;;;;9.20;1.80;;;;;;;-140.72;100.00;53182.28;5090096;28;20028;-63
2022/11/23 08:10:32;;;;;;;9.95;1.38;;;;;;;-140.72;100.00;53186.34;5083134;28;20518;-63
2022/11/23 08:13:04;;;;;;;5.70;1.55;;;;;;;-140.72;100.00;53180.25;5089227;28;20063;-62
2022/11/23 08:15:30;;;;;;;7.55;1.42;;;;;;;-140.72;100.00;53208.69;5099399;27;20576;-63
2022/11/23 08:17:57;;;;;;;4.18;1.40;;;;;;;-140.72;100.00;53178.22;5103217;27;20043;-63
2022/11/23 08:20:23;;;;;;;10.45;1.38;;;;;;;-140.72;100.00;53184.31;5096841;28;20023;-68
2022/11/23 08:22:48;;;;;;;5.68;1.55;;;;;;;-140.72;100.00;53170.13;5105337;27;20073;-62
2022/11/23 08:25:14;;;;;;;9.88;1.67;;;;;;;-140.72;100.00;53202.59;5094359;28;20024;-64
2022/11/23 08:27:39;;;;;;;5.47;2.17;;;;;;;-140.72;100.00;53176.22;5104981;28;20499;-64
2022/11/23 08:30:05;;;;;;;4.63;1.33;;;;;;;-140.72;100.00;53166.06;5095089;28;20031;-62
2022/11/23 08:32:30;;;;;;;7.20;1.30;;;;;;;-140.72;100.00;53176.22;5096406;28;20035;-63
2022/11/23 08:34:56;;;;;;;8.18;1.13;;;;;;;-140.72;100.00;53204.63;5100047;28;20032;-62
2022/11/23 08:37:21;;;;;;;4.53;1.50;;;;;;;-140.72;100.00;53178.22;5099460;28;20055;-63
2022/11/23 08:39:48;;;;;;;8.90;1.58;;;;;;;-140.72;100.00;53190.41;5102869;28;20090;-62
2022/11/23 08:42:13;;;;;;;2.88;1.73;;;;;;;-140.72;100.00;53159.97;5114386;27;20056;-65
2022/11/23 08:44:38;;;;;;;11.63;2.20;;;;;;;-140.72;100.00;53174.19;5106176;28;20202;-62
2022/11/23 08:47:04;;;;;;;6.47;1.85;;;;;;;-140.72;100.00;53119.38;5104817;27;20020;-66
2022/11/23 08:49:29;;;;;;;5.88;1.35;;;;;;;-140.72;100.00;53159.97;5105455;28;20039;-62
2022/11/23 08:51:54;;;;;;;5.72;2.00;;;;;;;-140.72;100.00;53172.16;5107252;28;20062;-63
2022/11/23 08:54:23;;;;;;;8.25;2.42;;;;;;;-140.72;100.00;53174.19;5106559;28;20023;-63
2022/11/23 08:56:48;;;;;;;9.70;2.33;;;;;;;-140.72;100.00;53141.69;5102535;28;20116;-63
2022/11/23 08:59:15;;;;;;;5.72;0.88;;;;;;;-140.72;100.00;53145.75;5099696;28;20040;-62
2022/11/23 09:01:41;;;;;;;7.90;1.25;;;;;;;-140.72;100.00;53149.81;5091153;28;20028;-63
2022/11/23 09:04:06;;;;;;;12.95;1.95;;;;;;;-140.72;100.00;53188.38;5103047;28;20077;-64
2022/11/23 09:06:33;;;;;;;5.97;0.85;;;;;;;-140.72;100.00;53099.09;5097148;28;20039;-67
2022/11/23 09:08:58;;;;;;;7.55;1.40;;;;;;;-140.72;100.00;53176.22;5105807;28;20038;-63
2022/11/23 09:11:25;;;;;;;1.70;0.90;;;;;;;-140.72;100.00;53166.06;5102643;28;20376;-62
2022/11/23 09:13:51;;;;;;;5.03;0.85;;;;;;;-140.72;100.00;53157.94;5106519;28;20092;-64
2022/11/23 09:16:17;;;;;;;9.00;2.53;;;;;;;-140.72;100.00;53178.22;5110573;27;20483;-64
2022/11/23 09:18:42;;;;;;;6.47;1.88;;;;;;;-140.72;100.00;53149.81;5107544;27;20039;-63
2022/11/23 09:21:09;;;;;;;3.92;1.52;;;;;;;-140.72;100.00;53166.06;5104918;27;20039;-62
2022/11/23 09:23:35;;;;;;;8.43;1.70;;;;;;;-140.72;100.00;53149.81;5106303;28;20027;-62
2022/11/23 09:26:02;;;;;;;9.30;0.93;;;;;;;-140.72;100.00;53194.47;5107056;27;20028;-62
2022/11/23 09:28:28;;;;;;;5.75;1.27;;;;;;;-140.72;100.00;53182.28;5104616;27;20028;-66
2022/11/23 09:30:55;;;;;;;7.45;1.17;;;;;;;-140.72;100.00;53155.91;5113522;27;20027;-66
2022/11/23 09:33:22;;;;;;;6.15;2.45;;;;;;;-140.72;100.00;53143.72;5105016;28;20028;-63
2022/11/23 09:35:58;;;;;;;5.65;1.33;;;;;;;-140.72;100.00;53151.84;5098221;28;20027;-62
2022/11/23 09:38:24;;;;;;;3.35;1.17;;;;;;;-140.72;100.00;53153.88;5094444;28;20032;-64
2022/11/23 09:40:59;;;;;;;3.40;1.30;;;;;;;-140.72;100.00;53131.56;5093628;28;20039;-63
2022/11/23 09:43:48;;;;;;;6.10;1.40;;;;;;;-140.72;100.00;53190.41;5102544;28;20020;-68
2022/11/23 09:46:28;;;;;;;3.40;0.95;;;;;;;-140.72;100.00;53176.22;5091608;28;20028;-62
2022/11/23 09:49:10;;;;;;;5.18;1.13;;;;;;;-140.72;100.00;53166.06;5100996;27;20040;-62
2022/11/23 09:51:38;;;;;;;6.65;2.00;;;;;;;-140.72;100.00;53162.00;5102717;27;20028;-62
2022/11/23 09:54:15;;;;;;;8.25;1.50;;;;;;;-140.72;100.00;53174.19;5102265;27;20027;-63
2022/11/23 09:56:42;;;;;;;5.75;1.13;;;;;;;-140.72;100.00;53127.50;5114634;27;20459;-62
2022/11/23 09:59:18;;;;;;;6.60;1.50;;;;;;;-140.72;100.00;53182.28;5107974;27;20035;-63
2022/11/23 10:01:44;;;;;;;4.47;1.50;;;;;;;-140.72;100.00;53166.06;5108210;28;20118;-62
2022/11/23 10:04:16;;;;;;;6.15;1.30;;;;;;;-140.72;100.00;53147.78;5111475;28;20106;-64
2022/11/23 10:06:42;;;;;;;11.35;1.83;;;;;;;-140.72;100.00;53162.00;5123816;27;20449;-62
2022/11/23 10:09:23;;;;;;;5.07;1.45;;;;;;;-140.72;100.00;53157.94;5112058;28;20427;-66
2022/11/23 10:12:07;;;;;;;6.60;1.83;;;;;;;-140.72;100.00;53149.81;5117535;27;20074;-63
2022/11/23 10:14:41;;;;;;;5.35;1.35;;;;;;;-140.72;100.00;53121.41;5111084;27;20126;-65
2022/11/23 10:17:12;;;;;;;2.95;1.83;;;;;;;-140.72;100.00;53149.81;5112143;28;20389;-62
2022/11/23 10:19:59;;;;;;;4.47;1.63;;;;;;;-140.72;100.00;53145.75;5110893;27;20073;-62
2022/11/23 10:22:38;;;;;;;3.47;1.65;;;;;;;-140.72;100.00;53143.72;5110093;28;20047;-63
2022/11/23 10:25:15;;;;;;;3.42;1.85;;;;;;;-140.72;100.00;53166.06;5100494;27;20064;-62
2022/11/23 10:27:42;;;;;;;10.35;1.38;;;;;;;-140.72;100.00;53166.06;5108820;28;20371;-62
2022/11/23 10:30:15;;;;;;;4.18;1.65;;;;;;;-140.72;100.00;53117.34;5112659;28;20058;-63
2022/11/23 10:32:56;;;;;;;1.40;0.95;;;;;;;-140.72;100.00;53186.34;5110848;28;20038;-62
2022/11/23 10:35:29;;;;;;;5.78;1.55;;;;;;;-140.72;100.00;53174.19;5112170;27;20048;-65
2022/11/23 10:38:17;;;;;;;3.25;1.38;;;;;;;-140.72;100.00;53149.81;5098436;28;20062;-65
2022/11/23 10:40:56;;;;;;;4.75;1.60;;;;;;;-140.72;100.00;53178.22;5097734;28;20072;-63
2022/11/23 10:43:26;;;;;;;8.27;1.63;;;;;;;-140.72;100.00;53133.59;5113573;27;20031;-63
2022/11/23 10:46:12;;;;;;;;;;;;;;;-140.72;100.00;53117.34;5108714;28;20654;-66
2022/11/23 10:48:37;;;;;;;4.47;1.50;;;;;;;-140.72;100.00;53141.69;5108120;28;19911;-63
2022/11/23 10:51:32;;;;;;;4.00;1.83;;;;;;;-140.72;100.00;53117.34;5111119;28;20430;-68
2022/11/23 10:54:38;;;;;;;2.67;1.60;;;;;;;-140.72;100.00;53121.41;5089191;27;20036;-66
2022/11/23 10:57:41;;;;;;;6.03;1.48;;;;;;;-140.72;100.00;53127.50;5109682;27;20303;-63
2022/11/23 11:00:09;;;;;;;6.63;1.80;;;;;;;-140.72;100.00;53178.22;5109687;28;20038;-63
2022/11/23 11:02:47;;;;;;;2.92;1.52;;;;;;;-140.72;100.00;53129.53;5112017;28;20161;-64
2022/11/23 11:05:36;;;;;;;3.55;1.58;;;;;;;-140.72;100.00;53178.22;5111712;28;20027;-63
2022/11/23 11:08:12;;;;;;;3.40;0.88;;;;;;;-140.72;100.00;53149.81;5110829;28;20024;-68
2022/11/23 11:10:39;;;;;;;4.78;1.73;;;;;;;-140.72;100.00;53109.22;5112115;28;20024;-63
2022/11/23 11:13:44;;;;;;;4.95;1.45;;;;;;;-140.72;100.00;53162.00;5106674;28;20056;-63
2022/11/23 11:16:34;;;;;;;1.98;1.08;;;;;;;-140.72;100.00;53155.91;5099018;28;20401;-63
2022/11/23 11:19:27;;;;;;;3.72;1.08;;;;;;;-140.72;100.00;53117.34;5083080;28;20461;-63
2022/11/23 11:21:53;;;;;;;7.60;2.30;;;;;;;-140.72;100.00;53121.41;5099685;28;20019;-66
2022/11/23 11:24:32;;;;;;;5.95;2.08;;;;;;;-140.72;100.00;53139.69;5109804;27;20489;-63
2022/11/23 11:27:11;;;;;;;9.50;1.73;;;;;;;-140.72;100.00;53113.28;5094973;28;20020;-64
2022/11/23 11:29:47;;;;;;;4.93;1.55;;;;;;;-140.72;100.00;53082.84;5097539;27;20023;-65
2022/11/23 11:32:50;;;;;;;1.45;1.25;;;;;;;-140.72;100.00;53125.47;5110877;28;20092;-63
2022/11/23 11:35:24;;;;;;;5.32;1.48;;;;;;;-140.72;100.00;53097.06;5103105;28;20496;-63
2022/11/23 11:37:53;;;;;;;6.57;2.15;;;;;;;-140.72;100.00;53125.47;5104441;27;20103;-63
2022/11/23 11:40:28;;;;;;;7.97;1.17;;;;;;;-140.72;100.00;53103.16;5104847;28;20027;-65
2022/11/23 11:43:06;;;;;;;4.47;1.13;;;;;;;-140.72;100.00;53125.47;5093838;27;20604;-63
2022/11/23 11:45:36;;;;;;;5.72;1.55;;;;;;;-140.72;100.00;53103.16;5106638;27;20098;-63
2022/11/23 11:48:01;;;;;;;3.13;1.20;;;;;;;-140.72;100.00;53088.94;5110754;28;20444;-64
2022/11/23 11:50:35;;;;;;;2.97;0.70;;;;;;;-140.72;100.00;53121.41;5108614;27;20068;-63
2022/11/23 11:53:13;;;;;;;3.60;1.13;;;;;;;-140.72;100.00;53109.22;5109275;28;20039;-65
2022/11/23 11:56:05;;;;;;;3.50;1.40;;;;;;;-140.72;100.00;53097.06;5107853;28;20073;-64
2022/11/23 11:58:34;;;;;;;7.85;0.82;;;;;;;-140.72;100.00;53103.16;5114222;27;20392;-66
2022/11/23 12:01:12;;;;;;;2.78;1.30;;;;;;;-140.72;100.00;53080.81;5107337;27;20365;-63
2022/11/23 12:03:51;;;;;;;2.20;0.95;;;;;;;-140.72;100.00;53088.94;5110035;27;20371;-63
2022/11/23 12:06:27;;;;;;;6.22;1.58;;;;;;;-140.72;100.00;53121.41;5109526;28;20072;-63
2022/11/23 12:09:10;;;;;;;2.85;1.13;;;;;;;-140.72;100.00;53084.88;5093133;28;20063;-63
2022/11/23 12:11:36;;;;;;;8.10;0.80;;;;;;;-140.72;100.00;53070.69;5107817;27;20034;-63
2022/11/23 12:14:04;;;;;;;6.05;0.80;;;;;;;-140.72;100.00;53086.91;5109085;28;20035;-67
2022/11/23 12:16:57;;;;;;;3.22;1.08;;;;;;;-140.72;100.00;53084.88;5107894;27;20112;-63
2022/11/23 12:19:49;;;;;;;4.90;1.65;;;;;;;-140.72;100.00;53107.19;5105457;27;20521;-64
2022/11/23 12:22:17;;;;;;;2.92;1.00;;;;;;;-140.72;100.00;53113.28;5090077;28;20502;-63
2022/11/23 12:24:51;;;;;;;4.90;1.20;;;;;;;-140.72;100.00;53095.03;5101634;28;20040;-64
2022/11/23 12:27:35;;;;;;;1.63;1.05;;;;;;;-140.72;100.00;53107.19;5099600;28;20031;-64
2022/11/23 12:30:24;;;;;;;4.82;1.17;;;;;;;-140.72;100.00;53117.34;5100716;28;20035;-66
2022/11/23 12:33:05;;;;;;;5.57;1.27;;;;;;;-140.72;100.00;53113.28;5085175;28;20450;-64
2022/11/23 12:36:18;;;;;;;2.45;0.60;;;;;;;-140.72;100.00;53082.84;5104812;28;20032;-62
2022/11/23 12:38:53;;;;;;;9.35;2.15;;;;;;;-140.72;100.00;53125.47;5043073;28;20470;-64
2022/11/23 12:41:33;;;;;;;6.30;0.85;;;;;;;-140.72;100.00;53135.63;5041774;28;20071;-68
2022/11/23 12:44:07;;;;;;;;;;;;;;;-140.72;100.00;53115.31;5080785;28;20131;-64
2022/11/23 12:46:36;;;;;;;10.70;1.23;;;;;;;-140.72;100.00;53105.19;5096323;28;19963;-67
2022/11/23 12:49:36;;;;;;;1.35;0.60;;;;;;;-140.72;100.00;53153.88;5096552;28;20123;-67
2022/11/23 12:52:01;;;;;;;;;;;;;;;-140.72;100.00;53127.50;5099314;28;20036;-64
2022/11/23 12:54:57;;;;;;;5.07;1.10;;;;;;;-140.72;100.00;53133.59;5100563;28;19919;-68
2022/11/23 12:57:33;;;;;;;1.52;0.60;;;;;;;-140.72;100.00;53135.63;5104042;28;20278;-63
2022/11/23 13:00:11;;;;;;;1.42;1.15;;;;;;;-140.72;100.00;53168.09;5094538;28;20026;-67
2022/11/23 13:02:43;;;;;;;3.70;0.98;;;;;;;-140.72;100.00;53133.59;5097006;28;20024;-64
2022/11/23 13:05:29;;;;;;;5.03;1.13;;;;;;;-140.72;100.00;53123.44;5101916;28;20030;-63
2022/11/23 13:08:04;;;;;;;1.20;0.82;;;;;;;-140.72;100.00;53141.69;5096419;28;20100;-67
2022/11/23 13:11:04;;;;;;;1.35;0.70;;;;;;;-140.72;100.00;53166.06;5101044;28;20401;-63
2022/11/23 13:13:47;;;;;;;2.25;0.98;;;;;;;-140.72;100.00;53121.41;5111544;28;20493;-68
2022/11/23 13:16:41;;;;;;;4.80;0.85;;;;;;;-140.72;100.00;53145.75;5104900;28;20040;-64
2022/11/23 13:19:06;;;;;;;2.95;0.70;;;;;;;-140.72;100.00;53139.69;5097269;28;20047;-66